sensor_id;sensor_type;location;lat;lon;timestamp;P1;durP1;ratioP1;P2;durP2;ratioP2
67776;SDS011;54576;52.020;5.536;2022-07-18T07:08:02;7.13;;;3.63;;
67776;SDS011;54576;52.020;5.536;2022-07-18T07:10:28;11.05;;;3.88;;
67776;SDS011;54576;52.020;5.536;2022-07-18T07:12:53;16.75;;;4.25;;
67776;SDS011;54576;52.020;5.536;2022-07-18T07:15:21;13.80;;;3.25;;
67776;SDS011;54576;52.020;5.536;2022-07-18T07:17:48;12.02;;;3.47;;
67776;SDS011;54576;52.020;5.536;2022-07-18T07:20:14;16.00;;;3.05;;
67776;SDS011;54576;52.020;5.536;2022-07-18T07:22:50;15.52;;;2.80;;
67776;SDS011;54576;52.020;5.536;2022-07-18T07:25:17;8.43;;;2.42;;
67776;SDS011;54576;52.020;5.536;2022-07-18T07:27:44;8.77;;;2.53;;
67776;SDS011;54576;52.020;5.536;2022-07-18T07:30:10;7.88;;;2.10;;
67776;SDS011;54576;52.020;5.536;2022-07-18T07:32:38;7.23;;;2.27;;
67776;SDS011;54576;52.020;5.536;2022-07-18T07:35:10;14.68;;;2.40;;
67776;SDS011;54576;52.020;5.536;2022-07-18T07:37:41;12.02;;;2.33;;
67776;SDS011;54576;52.020;5.536;2022-07-18T07:40:10;14.60;;;3.78;;
67776;SDS011;54576;52.020;5.536;2022-07-18T07:42:36;8.65;;;2.75;;
67776;SDS011;54576;52.020;5.536;2022-07-18T07:45:03;5.38;;;2.15;;
67776;SDS011;54576;52.020;5.536;2022-07-18T07:47:29;14.75;;;2.55;;
67776;SDS011;54576;52.020;5.536;2022-07-18T07:49:55;7.70;;;2.60;;
67776;SDS011;54576;52.020;5.536;2022-07-18T07:52:21;10.57;;;2.53;;
67776;SDS011;54576;52.020;5.536;2022-07-18T07:54:48;13.60;;;2.83;;
67776;SDS011;54576;52.020;5.536;2022-07-18T07:57:15;9.60;;;2.53;;
67776;SDS011;54576;52.020;5.536;2022-07-18T07:59:41;4.75;;;2.33;;
67776;SDS011;54576;52.020;5.536;2022-07-18T08:02:06;6.82;;;2.03;;
67776;SDS011;54576;52.020;5.536;2022-07-18T08:04:32;13.45;;;2.25;;
67776;SDS011;54576;52.020;5.536;2022-07-18T08:06:57;9.23;;;2.22;;
67776;SDS011;54576;52.020;5.536;2022-07-18T08:09:23;17.67;;;2.35;;
67776;SDS011;54576;52.020;5.536;2022-07-18T08:11:49;6.97;;;2.13;;
67776;SDS011;54576;52.020;5.536;2022-07-18T08:14:14;9.35;;;2.33;;
67776;SDS011;54576;52.020;5.536;2022-07-18T08:16:40;14.77;;;2.08;;
67776;SDS011;54576;52.020;5.536;2022-07-18T08:19:06;12.68;;;2.53;;
67776;SDS011;54576;52.020;5.536;2022-07-18T08:21:32;14.43;;;2.33;;
67776;SDS011;54576;52.020;5.536;2022-07-18T08:23:58;8.73;;;2.28;;
67776;SDS011;54576;52.020;5.536;2022-07-18T08:26:23;8.68;;;2.50;;
67776;SDS011;54576;52.020;5.536;2022-07-18T08:28:50;5.53;;;2.28;;
67776;SDS011;54576;52.020;5.536;2022-07-18T08:31:15;9.10;;;2.22;;
67776;SDS011;54576;52.020;5.536;2022-07-18T08:33:43;4.93;;;1.77;;
67776;SDS011;54576;52.020;5.536;2022-07-18T08:36:09;15.68;;;2.38;;
67776;SDS011;54576;52.020;5.536;2022-07-18T08:38:35;9.73;;;1.90;;
67776;SDS011;54576;52.020;5.536;2022-07-18T08:41:01;12.30;;;2.25;;
67776;SDS011;54576;52.020;5.536;2022-07-18T08:43:27;13.57;;;2.08;;
67776;SDS011;54576;52.020;5.536;2022-07-18T08:45:56;10.85;;;2.20;;
67776;SDS011;54576;52.020;5.536;2022-07-18T08:48:30;7.57;;;2.35;;
67776;SDS011;54576;52.020;5.536;2022-07-18T08:50:55;13.13;;;2.10;;
67776;SDS011;54576;52.020;5.536;2022-07-18T08:53:21;9.63;;;2.10;;
67776;SDS011;54576;52.020;5.536;2022-07-18T08:55:47;11.73;;;1.80;;
67776;SDS011;54576;52.020;5.536;2022-07-18T08:58:14;12.15;;;2.03;;
67776;SDS011;54576;52.020;5.536;2022-07-18T09:00:42;6.22;;;2.10;;
67776;SDS011;54576;52.020;5.536;2022-07-18T09:03:12;8.30;;;2.20;;
67776;SDS011;54576;52.020;5.536;2022-07-18T09:05:38;5.60;;;1.98;;
67776;SDS011;54576;52.020;5.536;2022-07-18T09:08:17;13.85;;;2.22;;
67776;SDS011;54576;52.020;5.536;2022-07-18T09:10:50;8.38;;;2.28;;
67776;SDS011;54576;52.020;5.536;2022-07-18T09:13:23;7.60;;;2.35;;
67776;SDS011;54576;52.020;5.536;2022-07-18T09:15:58;8.27;;;2.03;;
67776;SDS011;54576;52.020;5.536;2022-07-18T09:18:28;6.15;;;2.17;;
67776;SDS011;54576;52.020;5.536;2022-07-18T09:20:57;10.15;;;2.25;;
67776;SDS011;54576;52.020;5.536;2022-07-18T09:23:32;3.90;;;1.88;;
67776;SDS011;54576;52.020;5.536;2022-07-18T09:26:00;6.57;;;2.42;;
67776;SDS011;54576;52.020;5.536;2022-07-18T09:28:26;16.98;;;2.85;;
67776;SDS011;54576;52.020;5.536;2022-07-18T09:30:52;5.25;;;2.20;;
67776;SDS011;54576;52.020;5.536;2022-07-18T09:33:18;17.17;;;2.72;;
67776;SDS011;54576;52.020;5.536;2022-07-18T09:35:47;21.45;;;2.75;;
67776;SDS011;54576;52.020;5.536;2022-07-18T09:38:15;8.98;;;3.15;;
67776;SDS011;54576;52.020;5.536;2022-07-18T09:40:46;11.88;;;3.08;;
67776;SDS011;54576;52.020;5.536;2022-07-18T09:43:14;11.50;;;2.60;;
67776;SDS011;54576;52.020;5.536;2022-07-18T09:45:42;18.38;;;3.72;;
67776;SDS011;54576;52.020;5.536;2022-07-18T09:48:12;10.82;;;2.60;;
67776;SDS011;54576;52.020;5.536;2022-07-18T09:50:40;5.10;;;2.42;;
67776;SDS011;54576;52.020;5.536;2022-07-18T09:53:17;5.45;;;2.75;;
67776;SDS011;54576;52.020;5.536;2022-07-18T09:55:55;8.48;;;2.20;;
67776;SDS011;54576;52.020;5.536;2022-07-18T09:58:31;7.25;;;2.00;;
67776;SDS011;54576;52.020;5.536;2022-07-18T10:01:00;5.28;;;1.83;;
67776;SDS011;54576;52.020;5.536;2022-07-18T10:03:27;8.52;;;2.17;;
67776;SDS011;54576;52.020;5.536;2022-07-18T10:05:54;6.85;;;2.65;;
67776;SDS011;54576;52.020;5.536;2022-07-18T10:08:22;6.68;;;2.50;;
67776;SDS011;54576;52.020;5.536;2022-07-18T10:10:50;22.48;;;2.53;;
67776;SDS011;54576;52.020;5.536;2022-07-18T10:13:18;11.17;;;2.10;;
67776;SDS011;54576;52.020;5.536;2022-07-18T10:15:45;12.45;;;2.60;;
67776;SDS011;54576;52.020;5.536;2022-07-18T10:18:14;20.07;;;2.57;;
67776;SDS011;54576;52.020;5.536;2022-07-18T10:20:49;11.07;;;2.80;;
67776;SDS011;54576;52.020;5.536;2022-07-18T10:31:35;11.15;;;3.10;;
67776;SDS011;54576;52.020;5.536;2022-07-18T10:39:07;13.32;;;4.95;;
67776;SDS011;54576;52.020;5.536;2022-07-18T10:53:02;5.20;;;2.83;;
67776;SDS011;54576;52.020;5.536;2022-07-18T10:57:30;6.85;;;2.65;;
67776;SDS011;54576;52.020;5.536;2022-07-18T11:00:09;14.70;;;2.85;;
67776;SDS011;54576;52.020;5.536;2022-07-18T11:02:39;10.07;;;3.42;;
67776;SDS011;54576;52.020;5.536;2022-07-18T11:23:43;9.65;;;3.85;;
67776;SDS011;54576;52.020;5.536;2022-07-18T11:26:15;15.35;;;4.05;;
67776;SDS011;54576;52.020;5.536;2022-07-18T11:28:41;14.70;;;3.75;;
67776;SDS011;54576;52.020;5.536;2022-07-18T11:31:09;7.43;;;2.30;;
67776;SDS011;54576;52.020;5.536;2022-07-18T11:33:37;5.50;;;1.80;;
67776;SDS011;54576;52.020;5.536;2022-07-18T11:36:08;13.20;;;1.98;;
67776;SDS011;54576;52.020;5.536;2022-07-18T11:38:38;18.38;;;2.65;;
67776;SDS011;54576;52.020;5.536;2022-07-18T11:41:11;3.70;;;1.87;;
67776;SDS011;54576;52.020;5.536;2022-07-18T11:43:37;6.03;;;2.10;;
67776;SDS011;54576;52.020;5.536;2022-07-18T11:48:34;7.72;;;2.13;;
67776;SDS011;54576;52.020;5.536;2022-07-18T11:51:00;9.47;;;1.67;;
67776;SDS011;54576;52.020;5.536;2022-07-18T11:53:27;8.88;;;1.83;;
67776;SDS011;54576;52.020;5.536;2022-07-18T11:55:55;6.88;;;1.80;;
67776;SDS011;54576;52.020;5.536;2022-07-18T11:58:21;6.15;;;1.90;;
67776;SDS011;54576;52.020;5.536;2022-07-18T12:00:47;5.57;;;2.05;;
67776;SDS011;54576;52.020;5.536;2022-07-18T12:05:48;11.00;;;2.10;;
67776;SDS011;54576;52.020;5.536;2022-07-18T12:08:28;11.93;;;2.20;;
67776;SDS011;54576;52.020;5.536;2022-07-18T12:13:42;5.43;;;1.73;;
67776;SDS011;54576;52.020;5.536;2022-07-18T12:16:08;4.65;;;1.80;;
67776;SDS011;54576;52.020;5.536;2022-07-18T12:21:42;11.93;;;3.92;;
67776;SDS011;54576;52.020;5.536;2022-07-18T12:27:07;5.65;;;3.28;;
67776;SDS011;54576;52.020;5.536;2022-07-18T12:32:24;9.82;;;2.85;;
67776;SDS011;54576;52.020;5.536;2022-07-18T12:34:56;9.60;;;3.10;;
67776;SDS011;54576;52.020;5.536;2022-07-18T12:37:26;13.73;;;3.10;;
67776;SDS011;54576;52.020;5.536;2022-07-18T12:42:42;5.75;;;3.00;;
67776;SDS011;54576;52.020;5.536;2022-07-18T12:45:08;7.43;;;3.40;;
67776;SDS011;54576;52.020;5.536;2022-07-18T12:47:35;7.15;;;3.75;;
67776;SDS011;54576;52.020;5.536;2022-07-18T12:50:01;6.45;;;3.40;;
67776;SDS011;54576;52.020;5.536;2022-07-18T12:52:28;3.58;;;2.60;;
67776;SDS011;54576;52.020;5.536;2022-07-18T12:54:53;9.38;;;2.47;;
67776;SDS011;54576;52.020;5.536;2022-07-18T12:57:19;13.95;;;3.08;;
67776;SDS011;54576;52.020;5.536;2022-07-18T12:59:45;3.58;;;1.80;;
67776;SDS011;54576;52.020;5.536;2022-07-18T13:02:12;10.63;;;2.22;;
67776;SDS011;54576;52.020;5.536;2022-07-18T13:04:39;2.67;;;1.67;;
67776;SDS011;54576;52.020;5.536;2022-07-18T13:07:05;2.63;;;1.88;;
67776;SDS011;54576;52.020;5.536;2022-07-18T13:09:30;4.22;;;2.00;;
67776;SDS011;54576;52.020;5.536;2022-07-18T13:11:56;5.65;;;2.00;;
67776;SDS011;54576;52.020;5.536;2022-07-18T13:14:23;9.55;;;2.10;;
67776;SDS011;54576;52.020;5.536;2022-07-18T13:16:48;5.63;;;1.88;;
67776;SDS011;54576;52.020;5.536;2022-07-18T13:19:15;4.50;;;2.00;;
67776;SDS011;54576;52.020;5.536;2022-07-18T13:21:41;2.50;;;1.70;;
67776;SDS011;54576;52.020;5.536;2022-07-18T13:24:08;11.40;;;2.03;;
67776;SDS011;54576;52.020;5.536;2022-07-18T13:26:34;9.70;;;1.77;;
67776;SDS011;54576;52.020;5.536;2022-07-18T13:28:59;5.25;;;2.10;;
67776;SDS011;54576;52.020;5.536;2022-07-18T13:31:25;10.20;;;2.15;;
67776;SDS011;54576;52.020;5.536;2022-07-18T13:33:51;2.35;;;1.75;;
67776;SDS011;54576;52.020;5.536;2022-07-18T13:36:17;5.65;;;1.70;;
67776;SDS011;54576;52.020;5.536;2022-07-18T13:38:43;6.72;;;2.17;;
67776;SDS011;54576;52.020;5.536;2022-07-18T13:41:09;2.92;;;1.70;;
67776;SDS011;54576;52.020;5.536;2022-07-18T13:43:35;3.13;;;1.80;;
67776;SDS011;54576;52.020;5.536;2022-07-18T13:46:09;2.25;;;1.58;;
67776;SDS011;54576;52.020;5.536;2022-07-18T13:48:36;3.28;;;1.75;;
67776;SDS011;54576;52.020;5.536;2022-07-18T13:51:02;6.38;;;1.70;;
67776;SDS011;54576;52.020;5.536;2022-07-18T13:53:29;3.22;;;1.67;;
67776;SDS011;54576;52.020;5.536;2022-07-18T13:55:55;9.73;;;1.75;;
67776;SDS011;54576;52.020;5.536;2022-07-18T13:58:21;4.65;;;1.80;;
67776;SDS011;54576;52.020;5.536;2022-07-18T14:00:46;11.20;;;2.22;;
67776;SDS011;54576;52.020;5.536;2022-07-18T14:03:12;7.70;;;2.05;;
67776;SDS011;54576;52.020;5.536;2022-07-18T14:05:38;6.55;;;1.75;;
67776;SDS011;54576;52.020;5.536;2022-07-18T14:08:06;2.92;;;1.52;;
67776;SDS011;54576;52.020;5.536;2022-07-18T14:10:34;8.38;;;2.13;;
67776;SDS011;54576;52.020;5.536;2022-07-18T14:13:00;5.72;;;1.92;;
67776;SDS011;54576;52.020;5.536;2022-07-18T14:15:26;5.80;;;2.13;;
67776;SDS011;54576;52.020;5.536;2022-07-18T14:17:52;7.15;;;1.95;;
67776;SDS011;54576;52.020;5.536;2022-07-18T14:20:18;3.35;;;1.75;;
67776;SDS011;54576;52.020;5.536;2022-07-18T14:22:46;9.18;;;2.20;;
67776;SDS011;54576;52.020;5.536;2022-07-18T14:25:13;6.53;;;1.73;;
67776;SDS011;54576;52.020;5.536;2022-07-18T14:27:40;7.53;;;2.17;;
67776;SDS011;54576;52.020;5.536;2022-07-18T14:30:07;9.68;;;1.85;;
67776;SDS011;54576;52.020;5.536;2022-07-18T14:32:34;8.30;;;1.95;;
67776;SDS011;54576;52.020;5.536;2022-07-18T14:35:00;8.90;;;1.80;;
67776;SDS011;54576;52.020;5.536;2022-07-18T14:37:26;2.63;;;1.80;;
67776;SDS011;54576;52.020;5.536;2022-07-18T14:39:51;3.60;;;1.60;;
67776;SDS011;54576;52.020;5.536;2022-07-18T14:42:17;1.70;;;1.60;;
67776;SDS011;54576;52.020;5.536;2022-07-18T14:44:43;7.25;;;2.03;;
67776;SDS011;54576;52.020;5.536;2022-07-18T14:47:08;4.60;;;2.03;;
67776;SDS011;54576;52.020;5.536;2022-07-18T14:49:34;2.63;;;1.77;;
67776;SDS011;54576;52.020;5.536;2022-07-18T14:51:59;13.05;;;1.75;;
67776;SDS011;54576;52.020;5.536;2022-07-18T14:54:26;12.93;;;1.90;;
67776;SDS011;54576;52.020;5.536;2022-07-18T14:56:52;8.23;;;1.90;;
67776;SDS011;54576;52.020;5.536;2022-07-18T14:59:18;5.30;;;1.98;;
67776;SDS011;54576;52.020;5.536;2022-07-18T15:01:44;10.15;;;1.90;;
67776;SDS011;54576;52.020;5.536;2022-07-18T15:04:10;3.97;;;1.77;;
67776;SDS011;54576;52.020;5.536;2022-07-18T15:06:35;11.27;;;1.88;;
67776;SDS011;54576;52.020;5.536;2022-07-18T15:09:02;15.07;;;2.20;;
67776;SDS011;54576;52.020;5.536;2022-07-18T15:11:28;4.40;;;2.10;;
67776;SDS011;54576;52.020;5.536;2022-07-18T15:13:54;7.25;;;1.85;;
67776;SDS011;54576;52.020;5.536;2022-07-18T15:16:21;11.88;;;2.50;;
67776;SDS011;54576;52.020;5.536;2022-07-18T15:18:47;6.65;;;2.03;;
67776;SDS011;54576;52.020;5.536;2022-07-18T15:21:12;5.57;;;2.08;;
67776;SDS011;54576;52.020;5.536;2022-07-18T15:23:38;8.25;;;1.83;;
67776;SDS011;54576;52.020;5.536;2022-07-18T15:26:04;10.73;;;2.03;;
67776;SDS011;54576;52.020;5.536;2022-07-18T15:28:29;2.92;;;1.70;;
67776;SDS011;54576;52.020;5.536;2022-07-18T15:30:55;5.40;;;1.85;;
67776;SDS011;54576;52.020;5.536;2022-07-18T15:33:21;2.20;;;1.75;;
67776;SDS011;54576;52.020;5.536;2022-07-18T15:35:46;8.48;;;1.88;;
67776;SDS011;54576;52.020;5.536;2022-07-18T15:38:12;6.38;;;2.40;;
67776;SDS011;54576;52.020;5.536;2022-07-18T15:40:38;6.32;;;2.20;;
67776;SDS011;54576;52.020;5.536;2022-07-18T15:43:03;8.43;;;2.10;;
67776;SDS011;54576;52.020;5.536;2022-07-18T15:45:29;4.68;;;2.08;;
67776;SDS011;54576;52.020;5.536;2022-07-18T15:47:55;11.93;;;2.20;;
67776;SDS011;54576;52.020;5.536;2022-07-18T15:50:21;9.45;;;1.85;;
67776;SDS011;54576;52.020;5.536;2022-07-18T15:52:50;2.75;;;1.88;;
67776;SDS011;54576;52.020;5.536;2022-07-18T15:55:15;7.15;;;1.92;;
67776;SDS011;54576;52.020;5.536;2022-07-18T15:57:41;7.18;;;1.88;;
67776;SDS011;54576;52.020;5.536;2022-07-18T16:00:07;12.52;;;2.13;;
67776;SDS011;54576;52.020;5.536;2022-07-18T16:02:33;5.82;;;1.73;;
67776;SDS011;54576;52.020;5.536;2022-07-18T16:05:00;4.22;;;1.55;;
67776;SDS011;54576;52.020;5.536;2022-07-18T16:07:25;11.70;;;1.48;;
67776;SDS011;54576;52.020;5.536;2022-07-18T16:09:51;3.38;;;1.75;;
67776;SDS011;54576;52.020;5.536;2022-07-18T16:12:18;5.05;;;1.70;;
67776;SDS011;54576;52.020;5.536;2022-07-18T16:14:43;7.68;;;1.95;;
67776;SDS011;54576;52.020;5.536;2022-07-18T16:17:09;9.77;;;1.80;;
67776;SDS011;54576;52.020;5.536;2022-07-18T16:19:34;4.68;;;1.90;;
67776;SDS011;54576;52.020;5.536;2022-07-18T16:22:00;7.38;;;1.75;;
67776;SDS011;54576;52.020;5.536;2022-07-18T16:24:25;20.48;;;2.20;;
67776;SDS011;54576;52.020;5.536;2022-07-18T16:26:51;3.85;;;1.88;;
67776;SDS011;54576;52.020;5.536;2022-07-18T16:29:17;2.72;;;1.90;;
67776;SDS011;54576;52.020;5.536;2022-07-18T16:31:43;9.38;;;1.95;;
67776;SDS011;54576;52.020;5.536;2022-07-18T16:34:08;8.25;;;1.80;;
67776;SDS011;54576;52.020;5.536;2022-07-18T16:36:34;3.28;;;1.80;;
67776;SDS011;54576;52.020;5.536;2022-07-18T16:38:59;7.65;;;2.00;;
67776;SDS011;54576;52.020;5.536;2022-07-18T16:41:25;3.15;;;1.83;;
67776;SDS011;54576;52.020;5.536;2022-07-18T16:43:51;9.63;;;2.13;;
67776;SDS011;54576;52.020;5.536;2022-07-18T16:46:17;4.25;;;1.80;;
67776;SDS011;54576;52.020;5.536;2022-07-18T16:48:44;5.13;;;1.98;;
67776;SDS011;54576;52.020;5.536;2022-07-18T16:51:10;3.85;;;2.08;;
67776;SDS011;54576;52.020;5.536;2022-07-18T16:53:36;8.05;;;1.90;;
67776;SDS011;54576;52.020;5.536;2022-07-18T16:56:04;3.90;;;1.88;;
67776;SDS011;54576;52.020;5.536;2022-07-18T16:58:31;2.45;;;1.50;;
67776;SDS011;54576;52.020;5.536;2022-07-18T17:00:57;10.93;;;2.08;;
67776;SDS011;54576;52.020;5.536;2022-07-18T17:03:25;4.57;;;1.75;;
67776;SDS011;54576;52.020;5.536;2022-07-18T17:05:51;5.10;;;2.10;;
67776;SDS011;54576;52.020;5.536;2022-07-18T17:08:17;4.75;;;1.80;;
67776;SDS011;54576;52.020;5.536;2022-07-18T17:10:42;2.95;;;1.80;;
67776;SDS011;54576;52.020;5.536;2022-07-18T17:13:08;11.40;;;1.77;;
67776;SDS011;54576;52.020;5.536;2022-07-18T17:15:34;12.70;;;2.20;;
67776;SDS011;54576;52.020;5.536;2022-07-18T17:18:00;12.80;;;2.53;;
67776;SDS011;54576;52.020;5.536;2022-07-18T17:20:27;2.42;;;1.60;;
67776;SDS011;54576;52.020;5.536;2022-07-18T17:22:55;7.60;;;1.60;;
67776;SDS011;54576;52.020;5.536;2022-07-18T17:25:22;6.10;;;1.60;;
67776;SDS011;54576;52.020;5.536;2022-07-18T17:27:48;5.25;;;1.90;;
67776;SDS011;54576;52.020;5.536;2022-07-18T17:30:14;6.68;;;2.05;;
67776;SDS011;54576;52.020;5.536;2022-07-18T17:32:41;8.38;;;2.00;;
67776;SDS011;54576;52.020;5.536;2022-07-18T17:35:10;4.55;;;2.00;;
67776;SDS011;54576;52.020;5.536;2022-07-18T17:37:40;10.23;;;1.83;;
67776;SDS011;54576;52.020;5.536;2022-07-18T17:40:08;7.47;;;2.70;;
67776;SDS011;54576;52.020;5.536;2022-07-18T17:42:34;10.68;;;2.03;;
67776;SDS011;54576;52.020;5.536;2022-07-18T17:45:01;5.55;;;2.00;;
67776;SDS011;54576;52.020;5.536;2022-07-18T17:47:29;11.30;;;2.20;;
67776;SDS011;54576;52.020;5.536;2022-07-18T17:50:02;10.85;;;2.10;;
67776;SDS011;54576;52.020;5.536;2022-07-18T17:52:37;8.73;;;2.00;;
67776;SDS011;54576;52.020;5.536;2022-07-18T17:55:04;10.55;;;2.10;;
67776;SDS011;54576;52.020;5.536;2022-07-18T17:57:32;13.65;;;1.80;;
67776;SDS011;54576;52.020;5.536;2022-07-18T18:00:00;11.35;;;2.03;;
67776;SDS011;54576;52.020;5.536;2022-07-18T18:02:26;14.23;;;2.15;;
67776;SDS011;54576;52.020;5.536;2022-07-18T18:04:51;4.10;;;2.60;;
67776;SDS011;54576;52.020;5.536;2022-07-18T18:07:17;9.15;;;2.13;;
67776;SDS011;54576;52.020;5.536;2022-07-18T18:09:43;17.20;;;2.10;;
67776;SDS011;54576;52.020;5.536;2022-07-18T18:12:08;8.75;;;2.20;;
67776;SDS011;54576;52.020;5.536;2022-07-18T18:14:34;6.93;;;1.50;;
67776;SDS011;54576;52.020;5.536;2022-07-18T18:17:00;7.68;;;2.03;;
67776;SDS011;54576;52.020;5.536;2022-07-18T18:19:26;11.82;;;1.90;;
67776;SDS011;54576;52.020;5.536;2022-07-18T18:21:57;6.72;;;1.80;;
67776;SDS011;54576;52.020;5.536;2022-07-18T18:24:23;20.38;;;2.50;;
67776;SDS011;54576;52.020;5.536;2022-07-18T18:26:50;30.23;;;2.42;;
67776;SDS011;54576;52.020;5.536;2022-07-18T18:29:17;19.20;;;2.45;;
67776;SDS011;54576;52.020;5.536;2022-07-18T18:31:43;13.15;;;2.50;;
67776;SDS011;54576;52.020;5.536;2022-07-18T18:34:09;14.05;;;2.20;;
67776;SDS011;54576;52.020;5.536;2022-07-18T18:36:35;12.55;;;2.72;;
67776;SDS011;54576;52.020;5.536;2022-07-18T18:39:19;28.15;;;2.80;;
67776;SDS011;54576;52.020;5.536;2022-07-18T18:41:45;5.93;;;2.30;;
67776;SDS011;54576;52.020;5.536;2022-07-18T18:44:10;9.63;;;2.15;;
67776;SDS011;54576;52.020;5.536;2022-07-18T18:46:36;11.77;;;2.30;;
67776;SDS011;54576;52.020;5.536;2022-07-18T18:49:02;6.10;;;2.80;;
67776;SDS011;54576;52.020;5.536;2022-07-18T18:51:28;11.38;;;2.65;;
67776;SDS011;54576;52.020;5.536;2022-07-18T18:53:54;4.03;;;2.60;;
67776;SDS011;54576;52.020;5.536;2022-07-18T18:56:21;15.70;;;3.20;;
67776;SDS011;54576;52.020;5.536;2022-07-18T18:58:48;20.20;;;3.85;;
67776;SDS011;54576;52.020;5.536;2022-07-18T19:01:13;9.80;;;3.53;;
67776;SDS011;54576;52.020;5.536;2022-07-18T19:03:39;14.07;;;2.85;;
67776;SDS011;54576;52.020;5.536;2022-07-18T19:06:05;6.07;;;2.90;;
67776;SDS011;54576;52.020;5.536;2022-07-18T19:08:30;9.85;;;2.35;;
67776;SDS011;54576;52.020;5.536;2022-07-18T19:10:56;7.60;;;2.38;;
67776;SDS011;54576;52.020;5.536;2022-07-18T19:13:22;7.00;;;2.00;;
67776;SDS011;54576;52.020;5.536;2022-07-18T19:15:50;24.67;;;2.63;;
67776;SDS011;54576;52.020;5.536;2022-07-18T19:18:19;19.38;;;3.05;;
67776;SDS011;54576;52.020;5.536;2022-07-18T19:20:45;12.88;;;2.47;;
67776;SDS011;54576;52.020;5.536;2022-07-18T19:23:14;15.18;;;2.95;;
67776;SDS011;54576;52.020;5.536;2022-07-18T19:25:40;7.55;;;2.33;;
67776;SDS011;54576;52.020;5.536;2022-07-18T19:28:07;15.88;;;2.33;;
67776;SDS011;54576;52.020;5.536;2022-07-18T19:30:34;15.45;;;2.25;;
67776;SDS011;54576;52.020;5.536;2022-07-18T19:32:59;17.63;;;2.70;;
67776;SDS011;54576;52.020;5.536;2022-07-18T19:35:26;22.27;;;3.15;;
67776;SDS011;54576;52.020;5.536;2022-07-18T19:37:52;5.30;;;2.17;;
67776;SDS011;54576;52.020;5.536;2022-07-18T19:40:19;7.50;;;2.20;;
67776;SDS011;54576;52.020;5.536;2022-07-18T19:42:45;8.98;;;2.20;;
67776;SDS011;54576;52.020;5.536;2022-07-18T19:45:11;6.22;;;2.00;;
67776;SDS011;54576;52.020;5.536;2022-07-18T19:47:37;14.65;;;2.22;;
67776;SDS011;54576;52.020;5.536;2022-07-18T19:50:04;4.82;;;2.15;;
67776;SDS011;54576;52.020;5.536;2022-07-18T19:52:30;7.78;;;2.95;;
67776;SDS011;54576;52.020;5.536;2022-07-18T19:54:56;8.50;;;2.35;;
67776;SDS011;54576;52.020;5.536;2022-07-18T19:57:21;4.22;;;2.13;;
67776;SDS011;54576;52.020;5.536;2022-07-18T19:59:47;11.20;;;2.53;;
67776;SDS011;54576;52.020;5.536;2022-07-18T20:02:13;13.10;;;3.10;;
67776;SDS011;54576;52.020;5.536;2022-07-18T20:04:39;4.75;;;2.22;;
67776;SDS011;54576;52.020;5.536;2022-07-18T20:07:04;10.85;;;2.55;;
67776;SDS011;54576;52.020;5.536;2022-07-18T20:09:30;11.90;;;1.95;;
67776;SDS011;54576;52.020;5.536;2022-07-18T20:11:55;6.50;;;2.75;;
67776;SDS011;54576;52.020;5.536;2022-07-18T20:14:22;7.63;;;2.63;;
67776;SDS011;54576;52.020;5.536;2022-07-18T20:16:48;2.92;;;2.13;;
67776;SDS011;54576;52.020;5.536;2022-07-18T20:19:14;8.20;;;2.15;;
67776;SDS011;54576;52.020;5.536;2022-07-18T20:21:40;6.45;;;2.55;;
67776;SDS011;54576;52.020;5.536;2022-07-18T20:24:05;5.10;;;2.13;;
67776;SDS011;54576;52.020;5.536;2022-07-18T20:26:31;10.85;;;2.30;;
67776;SDS011;54576;52.020;5.536;2022-07-18T20:28:57;5.85;;;2.30;;
67776;SDS011;54576;52.020;5.536;2022-07-18T20:31:23;3.53;;;2.20;;
67776;SDS011;54576;52.020;5.536;2022-07-18T20:33:48;4.10;;;2.20;;
67776;SDS011;54576;52.020;5.536;2022-07-18T20:36:14;5.97;;;2.08;;
67776;SDS011;54576;52.020;5.536;2022-07-18T20:38:40;2.70;;;2.00;;
67776;SDS011;54576;52.020;5.536;2022-07-18T20:41:05;3.55;;;2.20;;
67776;SDS011;54576;52.020;5.536;2022-07-18T20:43:31;4.25;;;2.30;;
67776;SDS011;54576;52.020;5.536;2022-07-18T20:45:57;4.05;;;2.10;;
67776;SDS011;54576;52.020;5.536;2022-07-18T20:48:22;8.02;;;1.88;;
67776;SDS011;54576;52.020;5.536;2022-07-18T20:50:48;4.95;;;2.30;;
67776;SDS011;54576;52.020;5.536;2022-07-18T20:53:14;6.72;;;2.20;;
67776;SDS011;54576;52.020;5.536;2022-07-18T20:55:40;5.93;;;2.15;;
67776;SDS011;54576;52.020;5.536;2022-07-18T20:58:06;7.20;;;2.38;;
67776;SDS011;54576;52.020;5.536;2022-07-18T21:00:32;6.75;;;2.20;;
67776;SDS011;54576;52.020;5.536;2022-07-18T21:02:59;2.75;;;2.10;;
67776;SDS011;54576;52.020;5.536;2022-07-18T21:05:25;5.65;;;2.10;;
67776;SDS011;54576;52.020;5.536;2022-07-18T21:07:51;4.43;;;2.20;;
67776;SDS011;54576;52.020;5.536;2022-07-18T21:10:16;6.57;;;2.70;;
67776;SDS011;54576;52.020;5.536;2022-07-18T21:12:42;3.35;;;2.03;;
67776;SDS011;54576;52.020;5.536;2022-07-18T21:15:08;2.90;;;2.20;;
67776;SDS011;54576;52.020;5.536;2022-07-18T21:17:34;5.68;;;2.60;;
67776;SDS011;54576;52.020;5.536;2022-07-18T21:20:07;8.35;;;2.60;;
67776;SDS011;54576;52.020;5.536;2022-07-18T21:22:34;3.03;;;2.22;;
67776;SDS011;54576;52.020;5.536;2022-07-18T21:25:01;5.85;;;2.72;;
67776;SDS011;54576;52.020;5.536;2022-07-18T21:27:27;3.92;;;2.20;;
67776;SDS011;54576;52.020;5.536;2022-07-18T21:29:53;7.60;;;2.05;;
67776;SDS011;54576;52.020;5.536;2022-07-18T21:32:18;4.80;;;2.65;;
67776;SDS011;54576;52.020;5.536;2022-07-18T21:34:44;2.80;;;2.22;;
67776;SDS011;54576;52.020;5.536;2022-07-18T21:37:11;3.30;;;2.10;;
67776;SDS011;54576;52.020;5.536;2022-07-18T21:39:38;4.47;;;2.58;;
67776;SDS011;54576;52.020;5.536;2022-07-18T21:42:04;11.20;;;2.60;;
67776;SDS011;54576;52.020;5.536;2022-07-18T21:44:33;8.23;;;2.88;;
67776;SDS011;54576;52.020;5.536;2022-07-18T21:46:59;6.35;;;3.13;;
67776;SDS011;54576;52.020;5.536;2022-07-18T21:49:25;5.82;;;2.97;;
67776;SDS011;54576;52.020;5.536;2022-07-18T21:51:51;2.58;;;2.33;;
67776;SDS011;54576;52.020;5.536;2022-07-18T21:54:17;3.92;;;2.67;;
67776;SDS011;54576;52.020;5.536;2022-07-18T21:56:43;4.30;;;2.10;;
67776;SDS011;54576;52.020;5.536;2022-07-18T21:59:08;6.53;;;2.50;;
67776;SDS011;54576;52.020;5.536;2022-07-18T22:01:34;4.82;;;2.47;;
67776;SDS011;54576;52.020;5.536;2022-07-18T22:04:00;3.45;;;2.65;;
67776;SDS011;54576;52.020;5.536;2022-07-18T22:06:25;6.95;;;2.50;;
67776;SDS011;54576;52.020;5.536;2022-07-18T22:08:51;5.60;;;2.72;;
67776;SDS011;54576;52.020;5.536;2022-07-18T22:11:17;6.75;;;2.38;;
67776;SDS011;54576;52.020;5.536;2022-07-18T22:13:43;4.38;;;2.22;;
67776;SDS011;54576;52.020;5.536;2022-07-18T22:16:10;5.93;;;2.60;;
67776;SDS011;54576;52.020;5.536;2022-07-18T22:18:35;4.60;;;2.30;;
67776;SDS011;54576;52.020;5.536;2022-07-18T22:21:01;3.63;;;2.83;;
67776;SDS011;54576;52.020;5.536;2022-07-18T22:23:27;3.78;;;2.50;;
67776;SDS011;54576;52.020;5.536;2022-07-18T22:25:53;7.53;;;3.22;;
67776;SDS011;54576;52.020;5.536;2022-07-18T22:28:18;5.72;;;3.03;;
67776;SDS011;54576;52.020;5.536;2022-07-18T22:30:44;8.65;;;2.60;;
67776;SDS011;54576;52.020;5.536;2022-07-18T22:33:09;6.57;;;2.40;;
67776;SDS011;54576;52.020;5.536;2022-07-18T22:35:35;5.57;;;2.53;;
67776;SDS011;54576;52.020;5.536;2022-07-18T22:38:01;4.35;;;2.38;;
67776;SDS011;54576;52.020;5.536;2022-07-18T22:40:27;5.50;;;2.75;;
67776;SDS011;54576;52.020;5.536;2022-07-18T22:42:52;3.72;;;2.67;;
67776;SDS011;54576;52.020;5.536;2022-07-18T22:45:19;4.70;;;2.67;;
67776;SDS011;54576;52.020;5.536;2022-07-18T22:47:44;3.65;;;2.75;;
67776;SDS011;54576;52.020;5.536;2022-07-18T22:50:11;3.47;;;2.58;;
67776;SDS011;54576;52.020;5.536;2022-07-18T22:52:37;5.28;;;3.20;;